createdAt,value
2022-11-29T00:00:55.337Z,20.20
2022-11-29T00:01:55.433Z,20.20
2022-11-29T00:02:55.506Z,20.10
2022-11-29T00:03:55.324Z,19.30
2022-11-29T00:04:55.323Z,19.50
2022-11-29T00:05:55.313Z,19.80
2022-11-29T00:06:55.311Z,18.80
2022-11-29T00:07:55.325Z,18.30
2022-11-29T00:08:55.303Z,18.40
2022-11-29T00:09:55.298Z,20.90
2022-11-29T00:10:55.318Z,20.60
2022-11-29T00:11:55.288Z,20.20
2022-11-29T00:12:55.286Z,19.60
2022-11-29T00:13:55.280Z,19.70
2022-11-29T00:14:55.279Z,20.40
2022-11-29T00:15:55.273Z,18.30
2022-11-29T00:16:55.394Z,19.90
2022-11-29T00:17:55.271Z,19.30
2022-11-29T00:18:55.263Z,20.90
2022-11-29T00:19:55.259Z,20.60
2022-11-29T00:20:55.253Z,20.20
2022-11-29T00:21:55.249Z,19.60
2022-11-29T00:22:55.246Z,22.10
2022-11-29T00:23:55.240Z,19.60
2022-11-29T00:24:55.439Z,21.50
2022-11-29T00:25:55.231Z,22.00
2022-11-29T00:26:55.251Z,21.50
2022-11-29T00:27:55.224Z,19.70
2022-11-29T00:28:55.221Z,20.30
2022-11-29T00:29:55.215Z,24.60
2022-11-29T00:30:55.283Z,21.90
2022-11-29T00:31:55.207Z,22.40
2022-11-29T00:32:55.205Z,24.30
2022-11-29T00:33:55.198Z,22.50
2022-11-29T00:34:59.245Z,23.10
2022-11-29T00:35:55.190Z,20.40
2022-11-29T00:36:55.189Z,21.10
2022-11-29T00:37:55.181Z,24.70
2022-11-29T00:38:55.186Z,23.00
2022-11-29T00:39:55.176Z,23.20
2022-11-29T00:40:55.177Z,22.40
2022-11-29T00:41:55.169Z,20.70
2022-11-29T00:42:55.186Z,20.30
2022-11-29T00:43:55.157Z,22.00
2022-11-29T00:44:55.154Z,25.60
2022-11-29T00:45:55.199Z,25.00
2022-11-29T00:46:55.146Z,25.80
2022-11-29T00:47:55.141Z,21.40
2022-11-29T00:48:55.144Z,23.70
2022-11-29T00:49:55.137Z,22.70
2022-11-29T00:50:55.132Z,25.00
2022-11-29T00:51:55.124Z,22.80
2022-11-29T00:52:55.120Z,22.80
2022-11-29T00:53:55.124Z,22.40
2022-11-29T00:54:55.114Z,18.80
2022-11-29T00:55:55.107Z,23.90
2022-11-29T00:56:55.104Z,23.90
2022-11-29T00:57:55.097Z,20.60
2022-11-29T00:58:55.122Z,22.10
2022-11-29T00:59:55.094Z,23.70
2022-11-29T01:00:55.142Z,22.10
2022-11-29T01:01:55.084Z,22.80
2022-11-29T01:02:55.083Z,23.60
2022-11-29T01:03:55.076Z,22.20
2022-11-29T01:04:55.072Z,21.90
2022-11-29T01:05:55.069Z,22.90
2022-11-29T01:06:55.070Z,23.60
2022-11-29T01:07:55.136Z,23.80
2022-11-29T01:08:55.056Z,22.20
2022-11-29T01:09:55.051Z,22.20
2022-11-29T01:10:55.047Z,24.60
2022-11-29T01:11:55.049Z,26.30
2022-11-29T01:12:55.040Z,24.40
2022-11-29T01:13:55.051Z,23.70
2022-11-29T01:14:55.061Z,23.80
2022-11-29T01:15:55.034Z,23.20
2022-11-29T01:16:55.083Z,21.60
2022-11-29T01:17:55.015Z,26.20
2022-11-29T01:18:55.020Z,28.60
2022-11-29T01:19:55.007Z,23.50
2022-11-29T01:20:55.005Z,25.30
2022-11-29T01:21:55.001Z,26.90
2022-11-29T01:22:54.998Z,25.70
2022-11-29T01:23:54.992Z,29.70
2022-11-29T01:24:54.992Z,29.20
2022-11-29T01:25:54.983Z,28.40
2022-11-29T01:26:54.989Z,29.00
2022-11-29T01:27:54.988Z,29.60
2022-11-29T01:28:54.973Z,26.90
2022-11-29T01:29:54.969Z,29.30
2022-11-29T01:30:55.059Z,28.50
2022-11-29T01:31:54.959Z,31.00
2022-11-29T01:32:54.957Z,28.00
2022-11-29T01:33:54.956Z,32.80
2022-11-29T01:34:54.948Z,33.90
2022-11-29T01:35:54.942Z,31.60
2022-11-29T01:36:54.939Z,36.00
2022-11-29T01:37:54.936Z,33.70
2022-11-29T01:38:54.931Z,33.00
2022-11-29T01:39:54.926Z,29.80
2022-11-29T01:40:54.923Z,32.50
2022-11-29T01:41:54.920Z,30.50
2022-11-29T01:42:54.923Z,31.60
2022-11-29T01:43:54.911Z,28.00
2022-11-29T01:44:54.907Z,32.40
2022-11-29T01:45:54.918Z,28.30
2022-11-29T01:46:54.919Z,26.20
2022-11-29T01:47:54.893Z,28.90
2022-11-29T01:48:54.889Z,27.90
2022-11-29T01:49:54.884Z,26.30
2022-11-29T01:50:54.884Z,31.80
2022-11-29T01:51:54.877Z,27.90
2022-11-29T01:52:54.875Z,27.40
2022-11-29T01:53:54.875Z,26.90
2022-11-29T01:54:54.867Z,29.40
2022-11-29T01:55:54.975Z,30.70
2022-11-29T01:56:54.860Z,34.60
2022-11-29T01:57:54.852Z,27.30
2022-11-29T01:58:54.852Z,25.70
2022-11-29T01:59:54.843Z,32.50
2022-11-29T02:00:54.966Z,28.20
2022-11-29T02:01:54.841Z,27.70
2022-11-29T02:02:54.922Z,25.00
2022-11-29T02:03:54.831Z,26.40
2022-11-29T02:04:54.828Z,25.70
2022-11-29T02:05:54.820Z,24.30
2022-11-29T02:06:54.818Z,27.90
2022-11-29T02:07:54.886Z,28.90
2022-11-29T02:08:54.807Z,25.50
2022-11-29T02:09:54.802Z,24.80
2022-11-29T02:10:54.800Z,25.50
2022-11-29T02:11:54.796Z,28.30
2022-11-29T02:12:54.790Z,27.80
2022-11-29T02:13:54.787Z,31.80
2022-11-29T02:14:54.785Z,26.00
2022-11-29T02:15:54.831Z,25.20
2022-11-29T02:16:56.730Z,30.90
2022-11-29T02:17:54.768Z,23.80
2022-11-29T02:18:54.791Z,25.20
2022-11-29T02:19:54.764Z,24.70
2022-11-29T02:20:54.758Z,25.30
2022-11-29T02:21:54.757Z,25.70
2022-11-29T02:22:54.751Z,25.90
2022-11-29T02:23:54.743Z,25.70
2022-11-29T02:24:54.741Z,23.90
2022-11-29T02:25:54.735Z,23.60
2022-11-29T02:26:54.739Z,24.30
2022-11-29T02:27:54.729Z,24.10
2022-11-29T02:28:54.728Z,24.90
2022-11-29T02:29:54.718Z,23.60
2022-11-29T02:30:54.772Z,28.40
2022-11-29T02:31:54.712Z,34.40
2022-11-29T02:32:54.710Z,33.30
2022-11-29T02:33:54.706Z,35.50
2022-11-29T02:34:54.722Z,34.90
2022-11-29T02:35:54.697Z,37.30
2022-11-29T02:36:54.692Z,36.60
2022-11-29T02:37:54.694Z,31.00
2022-11-29T02:38:54.686Z,31.20
2022-11-29T02:39:54.679Z,27.90
2022-11-29T02:40:54.676Z,31.70
2022-11-29T02:41:54.672Z,34.70
2022-11-29T02:42:57.070Z,35.60
2022-11-29T02:43:54.665Z,37.80
2022-11-29T02:44:54.663Z,36.50
2022-11-29T02:45:54.762Z,38.60
2022-11-29T02:46:54.652Z,40.10
2022-11-29T02:47:54.646Z,42.00
2022-11-29T02:48:54.642Z,44.50
2022-11-29T02:49:54.637Z,45.00
2022-11-29T02:50:54.661Z,50.50
2022-11-29T02:51:54.629Z,45.40
2022-11-29T02:52:54.626Z,51.60
2022-11-29T02:53:54.620Z,47.70
2022-11-29T02:54:54.619Z,47.60
2022-11-29T02:55:54.614Z,49.30
2022-11-29T02:56:54.612Z,52.80
2022-11-29T02:57:54.607Z,48.00
2022-11-29T02:58:54.604Z,56.60
2022-11-29T02:59:54.599Z,54.40
2022-11-29T03:00:54.593Z,60.30
2022-11-29T03:01:54.626Z,65.70
2022-11-29T03:02:54.606Z,72.30
2022-11-29T03:03:54.593Z,76.90
2022-11-29T03:04:54.578Z,77.70
2022-11-29T03:05:54.576Z,82.00
2022-11-29T03:06:54.593Z,77.90
2022-11-29T03:07:54.644Z,77.10
2022-11-29T03:08:54.561Z,79.30
2022-11-29T03:09:54.557Z,80.30
2022-11-29T03:10:54.552Z,84.10
2022-11-29T03:11:54.551Z,87.40
2022-11-29T03:12:54.544Z,84.00
2022-11-29T03:13:54.547Z,83.90
2022-11-29T03:14:54.537Z,78.90
2022-11-29T03:15:54.599Z,85.50
2022-11-29T03:16:54.531Z,87.70
2022-11-29T03:17:54.525Z,89.00
2022-11-29T03:18:54.522Z,77.50
2022-11-29T03:19:54.518Z,87.50
2022-11-29T03:20:54.515Z,82.10
2022-11-29T03:21:54.509Z,82.50
2022-11-29T03:22:54.521Z,79.20
2022-11-29T03:23:54.503Z,81.50
2022-11-29T03:24:54.493Z,82.00
2022-11-29T03:25:54.500Z,84.80
2022-11-29T03:26:54.486Z,77.40
2022-11-29T03:27:54.485Z,80.80
2022-11-29T03:28:54.481Z,77.80
2022-11-29T03:29:54.825Z,77.30
2022-11-29T03:30:54.501Z,78.30
2022-11-29T03:31:54.464Z,76.40
2022-11-29T03:32:54.460Z,79.00
2022-11-29T03:33:54.458Z,79.40
2022-11-29T03:34:57.357Z,73.90
2022-11-29T03:35:54.453Z,72.40
2022-11-29T03:36:54.442Z,75.50
2022-11-29T03:37:54.439Z,79.40
2022-11-29T03:38:54.452Z,73.80
2022-11-29T03:39:54.431Z,71.00
2022-11-29T03:40:54.426Z,69.10
2022-11-29T03:41:54.421Z,74.10
2022-11-29T03:42:54.416Z,71.10
2022-11-29T03:43:54.415Z,73.90
2022-11-29T03:44:54.409Z,76.70
2022-11-29T03:45:54.456Z,76.90
2022-11-29T03:46:54.401Z,82.40
2022-11-29T03:47:54.397Z,74.40
2022-11-29T03:48:54.391Z,74.20
2022-11-29T03:49:54.392Z,76.10
2022-11-29T03:50:54.384Z,71.90
2022-11-29T03:51:54.384Z,71.00
2022-11-29T03:52:54.376Z,79.20
2022-11-29T03:53:54.383Z,81.70
2022-11-29T03:54:54.388Z,89.80
2022-11-29T03:55:54.364Z,82.50
2022-11-29T03:56:54.358Z,82.00
2022-11-29T03:57:54.359Z,80.60
2022-11-29T03:58:54.350Z,89.90
2022-11-29T03:59:54.361Z,91.60
2022-11-29T04:00:54.343Z,87.40
2022-11-29T04:01:54.391Z,95.70
2022-11-29T04:02:54.371Z,91.90
2022-11-29T04:03:54.333Z,91.10
2022-11-29T04:04:54.328Z,89.20
2022-11-29T04:05:54.323Z,85.30
2022-11-29T04:06:54.315Z,95.00
2022-11-29T04:07:54.401Z,98.30
2022-11-29T04:08:54.309Z,104.00
2022-11-29T04:09:54.309Z,108.00
2022-11-29T04:10:54.321Z,106.00
2022-11-29T04:11:54.298Z,100.90
2022-11-29T04:12:54.290Z,103.90
2022-11-29T04:13:54.286Z,110.10
2022-11-29T04:14:54.281Z,117.10
2022-11-29T04:15:54.295Z,118.10
2022-11-29T04:16:54.273Z,110.60
2022-11-29T04:17:54.272Z,115.40
2022-11-29T04:18:54.265Z,112.20
2022-11-29T04:19:54.263Z,118.00
2022-11-29T04:20:54.255Z,121.20
2022-11-29T04:21:54.252Z,113.90
2022-11-29T04:22:54.251Z,111.20
2022-11-29T04:23:54.246Z,111.20
2022-11-29T04:24:54.238Z,120.50
2022-11-29T04:25:54.238Z,123.60
2022-11-29T04:26:54.251Z,122.70
2022-11-29T04:27:54.228Z,116.00
2022-11-29T04:28:54.223Z,119.00
2022-11-29T04:29:54.471Z,115.90
2022-11-29T04:30:54.327Z,120.10
2022-11-29T04:31:54.219Z,131.40
2022-11-29T04:32:54.205Z,134.30
2022-11-29T04:33:54.205Z,126.70
2022-11-29T04:34:54.198Z,132.60
2022-11-29T04:35:54.195Z,129.30
2022-11-29T04:36:54.187Z,134.80
2022-11-29T04:37:54.189Z,143.70
2022-11-29T04:38:54.180Z,143.10
2022-11-29T04:39:54.178Z,149.10
2022-11-29T04:40:54.180Z,154.40
2022-11-29T04:41:54.167Z,156.40
2022-11-29T04:42:54.186Z,162.70
2022-11-29T04:43:54.165Z,165.10
2022-11-29T04:44:54.160Z,162.20
2022-11-29T04:45:54.154Z,164.70
2022-11-29T04:46:54.146Z,164.40
2022-11-29T04:47:54.145Z,190.00
2022-11-29T04:48:54.138Z,171.70
2022-11-29T04:49:54.135Z,176.20
2022-11-29T04:50:54.131Z,178.40
2022-11-29T04:51:54.127Z,177.50
2022-11-29T04:52:54.121Z,177.00
2022-11-29T04:53:54.120Z,178.90
2022-11-29T04:54:54.110Z,182.10
2022-11-29T04:55:54.111Z,172.20
2022-11-29T04:56:54.105Z,192.00
2022-11-29T04:57:54.099Z,183.10
2022-11-29T04:58:54.118Z,175.20
2022-11-29T04:59:54.092Z,185.10
2022-11-29T05:00:54.084Z,181.00
2022-11-29T05:01:54.130Z,183.00
2022-11-29T05:02:54.130Z,179.60
2022-11-29T05:03:57.208Z,178.40
2022-11-29T05:04:54.068Z,184.10
2022-11-29T05:05:54.070Z,191.20
2022-11-29T05:06:54.061Z,183.10
2022-11-29T05:07:54.147Z,176.10
2022-11-29T05:08:54.053Z,177.90
2022-11-29T05:09:54.047Z,187.20
2022-11-29T05:10:54.043Z,175.20
2022-11-29T05:11:54.038Z,178.00
2022-11-29T05:12:54.033Z,173.10
2022-11-29T05:13:54.029Z,179.30
2022-11-29T05:14:54.046Z,180.70
2022-11-29T05:15:54.091Z,183.40
2022-11-29T05:16:54.015Z,177.80
2022-11-29T05:17:54.015Z,180.90
2022-11-29T05:18:54.007Z,177.60
2022-11-29T05:19:54.007Z,192.80
2022-11-29T05:20:53.998Z,173.70
2022-11-29T05:21:54.006Z,185.50
2022-11-29T05:22:53.986Z,182.70
2022-11-29T05:23:53.986Z,177.80
2022-11-29T05:24:53.979Z,191.00
2022-11-29T05:25:53.976Z,181.50
2022-11-29T05:26:53.969Z,195.80
2022-11-29T05:27:53.971Z,191.80
2022-11-29T05:28:53.961Z,185.50
2022-11-29T05:29:53.957Z,186.70
2022-11-29T05:30:54.033Z,188.20
2022-11-29T05:31:53.951Z,189.70
2022-11-29T05:32:53.945Z,195.30
2022-11-29T05:33:53.942Z,189.00
2022-11-29T05:34:54.337Z,192.40
2022-11-29T05:35:53.937Z,201.80
2022-11-29T05:36:53.926Z,198.70
2022-11-29T05:37:53.924Z,192.90
2022-11-29T05:38:53.920Z,203.90
2022-11-29T05:39:53.918Z,211.40
2022-11-29T05:40:54.003Z,193.50
2022-11-29T05:41:53.914Z,189.80
2022-11-29T05:42:53.902Z,193.10
2022-11-29T05:43:53.902Z,190.20
2022-11-29T05:44:53.893Z,207.00
2022-11-29T05:45:53.891Z,189.90
2022-11-29T05:46:53.905Z,189.50
2022-11-29T05:47:53.883Z,183.60
2022-11-29T05:48:53.885Z,192.40
2022-11-29T05:49:53.872Z,199.50
2022-11-29T05:50:53.867Z,192.90
2022-11-29T05:51:53.863Z,191.80
2022-11-29T05:52:53.856Z,197.50
2022-11-29T05:53:53.854Z,189.10
2022-11-29T05:54:53.849Z,184.70
2022-11-29T05:55:53.844Z,187.70
2022-11-29T05:56:53.839Z,191.40
2022-11-29T05:57:53.834Z,185.30
2022-11-29T05:58:53.836Z,175.90
2022-11-29T05:59:53.832Z,170.20
2022-11-29T06:00:53.831Z,172.70
2022-11-29T06:01:53.891Z,179.50
2022-11-29T06:02:53.847Z,177.00
2022-11-29T06:03:53.812Z,180.80
2022-11-29T06:04:53.805Z,188.00
2022-11-29T06:05:53.800Z,177.10
2022-11-29T06:06:53.801Z,173.00
2022-11-29T06:07:53.821Z,178.60
2022-11-29T06:08:53.786Z,179.40
2022-11-29T06:09:53.783Z,175.70
2022-11-29T06:10:53.777Z,176.90
2022-11-29T06:11:53.779Z,173.90
2022-11-29T06:12:53.770Z,174.90
2022-11-29T06:13:53.765Z,165.80
2022-11-29T06:14:53.764Z,163.10
2022-11-29T06:15:53.823Z,163.30
2022-11-29T06:16:53.753Z,171.20
2022-11-29T06:17:53.750Z,171.20
2022-11-29T06:18:53.766Z,168.90
2022-11-29T06:19:53.747Z,164.50
2022-11-29T06:20:53.735Z,165.20
2022-11-29T06:21:53.733Z,171.20
2022-11-29T06:22:53.731Z,179.00
2022-11-29T06:23:53.724Z,179.50
2022-11-29T06:24:53.717Z,174.60
2022-11-29T06:25:53.723Z,165.50
2022-11-29T06:26:53.738Z,168.70
2022-11-29T06:27:53.707Z,162.30
2022-11-29T06:28:53.703Z,167.20
2022-11-29T06:29:53.701Z,171.00
2022-11-29T06:30:53.693Z,175.80
2022-11-29T06:31:53.693Z,170.40
2022-11-29T06:32:53.685Z,157.10
2022-11-29T06:33:53.683Z,160.60
2022-11-29T06:34:53.692Z,159.90
2022-11-29T06:35:53.671Z,173.30
2022-11-29T06:36:53.663Z,160.50
2022-11-29T06:37:53.663Z,164.50
2022-11-29T06:38:53.669Z,168.60
2022-11-29T06:39:53.855Z,164.90
2022-11-29T06:40:58.613Z,162.40
2022-11-29T06:41:53.647Z,167.40
2022-11-29T06:42:53.639Z,181.60
2022-11-29T06:43:53.634Z,173.30
2022-11-29T06:44:53.631Z,182.70
2022-11-29T06:45:53.634Z,178.60
2022-11-29T06:46:53.688Z,173.70
2022-11-29T06:47:53.619Z,183.40
2022-11-29T06:48:56.593Z,195.80
2022-11-29T06:49:53.609Z,192.20
2022-11-29T06:50:53.624Z,176.00
2022-11-29T06:51:53.602Z,195.90
2022-11-29T06:52:53.597Z,190.90
2022-11-29T06:53:53.593Z,191.90
2022-11-29T06:54:53.589Z,181.20
2022-11-29T06:55:53.587Z,194.20
2022-11-29T06:56:53.581Z,179.90
2022-11-29T06:57:53.575Z,187.10
2022-11-29T06:58:53.570Z,182.00
2022-11-29T06:59:53.575Z,177.40
2022-11-29T07:00:53.576Z,173.00
2022-11-29T07:01:53.624Z,176.70
2022-11-29T07:02:53.595Z,182.90
2022-11-29T07:03:53.552Z,179.30
2022-11-29T07:04:53.544Z,162.30
2022-11-29T07:05:53.539Z,168.20
2022-11-29T07:06:53.554Z,166.60
2022-11-29T07:07:53.582Z,163.00
2022-11-29T07:08:53.526Z,156.70
2022-11-29T07:09:53.524Z,158.40
2022-11-29T07:10:53.516Z,157.00
2022-11-29T07:11:53.512Z,160.60
2022-11-29T07:12:53.513Z,156.90
2022-11-29T07:13:53.505Z,158.00
2022-11-29T07:14:53.497Z,157.00
2022-11-29T07:15:53.535Z,149.40
2022-11-29T07:16:57.346Z,159.40
2022-11-29T07:17:53.485Z,162.50
2022-11-29T07:18:53.480Z,149.60
2022-11-29T07:19:53.476Z,161.00
2022-11-29T07:20:53.471Z,145.50
2022-11-29T07:21:53.466Z,141.10
2022-11-29T07:22:53.493Z,153.00
2022-11-29T07:23:53.466Z,147.20
2022-11-29T07:24:53.454Z,147.70
2022-11-29T07:25:53.448Z,140.50
2022-11-29T07:26:58.126Z,141.50
2022-11-29T07:27:53.440Z,152.20
2022-11-29T07:28:53.438Z,138.30
2022-11-29T07:29:53.433Z,144.10
2022-11-29T07:30:53.427Z,148.70
2022-11-29T07:31:53.457Z,157.10
2022-11-29T07:32:58.785Z,147.70
2022-11-29T07:33:53.414Z,147.00
2022-11-29T07:34:53.410Z,148.40
2022-11-29T07:35:53.407Z,147.90
2022-11-29T07:36:53.413Z,141.90
2022-11-29T07:37:53.403Z,158.00
2022-11-29T07:38:53.417Z,149.80
2022-11-29T07:39:53.737Z,136.60
2022-11-29T07:40:53.385Z,143.30
2022-11-29T07:41:53.386Z,133.70
2022-11-29T07:42:53.381Z,132.00
2022-11-29T07:43:53.371Z,139.70
2022-11-29T07:44:53.367Z,135.80
2022-11-29T07:45:53.362Z,137.70
2022-11-29T07:46:53.431Z,140.10
2022-11-29T07:47:53.354Z,142.30
2022-11-29T07:48:53.352Z,127.70
2022-11-29T07:49:53.344Z,136.40
2022-11-29T07:50:53.343Z,128.80
2022-11-29T07:51:53.338Z,135.60
2022-11-29T07:52:53.332Z,131.70
2022-11-29T07:53:53.325Z,140.80
2022-11-29T07:54:53.347Z,139.40
2022-11-29T07:55:53.319Z,130.90
2022-11-29T07:56:53.315Z,141.40
2022-11-29T07:57:53.310Z,141.80
2022-11-29T07:58:53.356Z,135.40
2022-11-29T07:59:53.299Z,139.50
2022-11-29T08:00:53.379Z,133.70
2022-11-29T08:01:53.322Z,136.30
2022-11-29T08:02:53.289Z,125.70
2022-11-29T08:03:53.282Z,126.60
2022-11-29T08:04:53.279Z,131.70
2022-11-29T08:05:53.273Z,130.60
2022-11-29T08:06:53.284Z,137.00
2022-11-29T08:07:53.319Z,131.10
2022-11-29T08:08:53.262Z,137.50
2022-11-29T08:09:53.256Z,125.90
2022-11-29T08:10:53.288Z,138.70
2022-11-29T08:11:53.254Z,130.40
2022-11-29T08:12:53.246Z,135.00
2022-11-29T08:13:53.239Z,127.50
2022-11-29T08:14:53.243Z,135.00
2022-11-29T08:15:53.233Z,125.00
2022-11-29T08:16:53.233Z,133.30
2022-11-29T08:17:53.223Z,131.60
2022-11-29T08:18:53.217Z,136.30
2022-11-29T08:19:53.215Z,139.80
2022-11-29T08:20:53.210Z,126.90
2022-11-29T08:21:53.204Z,130.90
2022-11-29T08:22:53.206Z,133.20
2022-11-29T08:23:53.195Z,123.10
2022-11-29T08:24:53.193Z,129.00
2022-11-29T08:25:53.188Z,123.20
2022-11-29T08:26:53.276Z,128.00
2022-11-29T08:27:53.183Z,122.20
2022-11-29T08:28:53.176Z,118.20
2022-11-29T08:29:53.170Z,119.30
2022-11-29T08:30:53.165Z,120.10
2022-11-29T08:31:53.339Z,116.50
2022-11-29T08:32:53.156Z,119.90
2022-11-29T08:33:53.150Z,118.90
2022-11-29T08:34:53.154Z,126.60
2022-11-29T08:35:53.143Z,115.60
2022-11-29T08:36:53.142Z,107.60
2022-11-29T08:37:53.136Z,120.00
2022-11-29T08:39:01.244Z,113.00
2022-11-29T08:39:53.577Z,112.50
2022-11-29T08:40:53.121Z,114.80
2022-11-29T08:41:53.116Z,105.10
2022-11-29T08:42:53.136Z,106.00
2022-11-29T08:43:53.108Z,105.00
2022-11-29T08:44:53.103Z,108.80
2022-11-29T08:45:53.185Z,102.40
2022-11-29T08:46:53.098Z,96.90
2022-11-29T08:47:53.090Z,96.20
2022-11-29T08:48:53.087Z,97.40
2022-11-29T08:49:53.086Z,91.90
2022-11-29T08:50:53.086Z,108.80
2022-11-29T08:51:53.080Z,94.80
2022-11-29T08:52:53.069Z,93.50
2022-11-29T08:53:53.071Z,93.20
2022-11-29T08:54:53.061Z,99.60
2022-11-29T08:55:53.055Z,100.50
2022-11-29T08:57:37.341Z,93.10
2022-11-29T08:57:53.047Z,95.70
2022-11-29T08:58:53.069Z,90.70
2022-11-29T08:59:53.053Z,94.80
2022-11-29T09:00:53.132Z,95.50
2022-11-29T09:01:53.069Z,89.10
2022-11-29T09:02:53.035Z,90.90
2022-11-29T09:03:53.023Z,90.30
2022-11-29T09:04:53.016Z,89.80
2022-11-29T09:05:53.011Z,88.00
2022-11-29T09:06:53.011Z,89.90
2022-11-29T09:07:53.043Z,88.20
2022-11-29T09:08:53.012Z,88.70
2022-11-29T09:09:52.997Z,92.20
2022-11-29T09:10:52.997Z,95.70
2022-11-29T09:11:52.993Z,94.90
2022-11-29T09:12:52.984Z,91.40
2022-11-29T09:13:52.981Z,92.90
2022-11-29T09:14:53.007Z,83.40
2022-11-29T09:15:52.980Z,80.40
2022-11-29T09:16:53.023Z,75.90
2022-11-29T09:17:52.964Z,74.40
2022-11-29T09:18:52.963Z,67.40
2022-11-29T09:19:52.954Z,71.50
2022-11-29T09:20:52.950Z,84.00
2022-11-29T09:21:52.945Z,80.00
2022-11-29T09:22:52.952Z,78.20
2022-11-29T09:23:52.944Z,84.30
2022-11-29T09:24:52.930Z,86.40
2022-11-29T09:25:52.925Z,88.80
2022-11-29T09:26:52.924Z,87.60
2022-11-29T09:27:52.918Z,91.30
2022-11-29T09:28:52.913Z,81.80
2022-11-29T09:29:52.910Z,88.60
2022-11-29T09:30:52.929Z,86.40
2022-11-29T09:31:52.928Z,93.00
2022-11-29T09:32:52.896Z,87.70
2022-11-29T09:33:52.892Z,86.60
2022-11-29T09:34:52.897Z,86.60
2022-11-29T09:35:52.888Z,91.40
2022-11-29T09:36:52.880Z,92.00
2022-11-29T09:37:52.874Z,116.30
2022-11-29T09:38:52.872Z,117.10
2022-11-29T09:39:52.868Z,120.80
2022-11-29T09:40:52.875Z,119.90
2022-11-29T09:41:52.865Z,122.10
2022-11-29T09:42:52.857Z,127.60
2022-11-29T09:43:52.849Z,130.80
2022-11-29T09:44:52.847Z,133.70
2022-11-29T09:45:52.895Z,134.60
2022-11-29T09:46:58.425Z,135.20
2022-11-29T09:47:52.835Z,132.60
2022-11-29T09:48:52.830Z,137.10
2022-11-29T09:49:52.825Z,143.90
2022-11-29T09:50:52.817Z,142.90
2022-11-29T09:51:52.817Z,142.40
2022-11-29T09:52:52.810Z,145.90
2022-11-29T09:53:52.807Z,136.60
2022-11-29T09:54:52.812Z,132.10
2022-11-29T09:55:52.798Z,144.20
2022-11-29T09:56:52.796Z,150.50
2022-11-29T09:57:52.789Z,148.20
2022-11-29T09:58:52.783Z,143.80
2022-11-29T09:59:52.782Z,135.70
2022-11-29T10:00:52.811Z,131.00
2022-11-29T10:01:52.775Z,140.60
2022-11-29T10:02:52.810Z,127.90
2022-11-29T10:03:52.764Z,131.80
2022-11-29T10:04:52.758Z,132.20
2022-11-29T10:05:52.752Z,129.40
2022-11-29T10:06:52.749Z,132.10
2022-11-29T10:07:52.797Z,126.70
2022-11-29T10:08:52.740Z,119.70
2022-11-29T10:09:52.733Z,127.00
2022-11-29T10:10:52.729Z,128.10
2022-11-29T10:11:52.725Z,126.10
2022-11-29T10:12:52.722Z,128.70
2022-11-29T10:13:52.714Z,130.00
2022-11-29T10:14:52.713Z,122.50
2022-11-29T10:15:52.707Z,127.70
2022-11-29T10:16:52.783Z,126.70
2022-11-29T10:17:52.696Z,129.00
2022-11-29T10:18:52.714Z,121.30
2022-11-29T10:19:52.688Z,120.20
2022-11-29T10:20:52.687Z,127.20
2022-11-29T10:21:52.678Z,123.50
2022-11-29T10:22:52.676Z,123.00
2022-11-29T10:23:52.670Z,126.20
2022-11-29T10:24:52.667Z,125.80
2022-11-29T10:25:52.662Z,132.10
2022-11-29T10:26:52.661Z,130.80
2022-11-29T10:27:52.651Z,128.40
2022-11-29T10:28:52.655Z,125.80
2022-11-29T10:29:52.643Z,124.10
2022-11-29T10:30:52.674Z,123.60
2022-11-29T10:31:52.633Z,123.90
2022-11-29T10:32:52.632Z,123.40
2022-11-29T10:33:52.627Z,119.30
2022-11-29T10:34:52.657Z,124.40
2022-11-29T10:35:52.632Z,128.00
2022-11-29T10:36:52.615Z,131.30
2022-11-29T10:38:28.667Z,118.30
2022-11-29T10:38:52.611Z,127.30
2022-11-29T10:39:52.599Z,135.60
2022-11-29T10:40:52.595Z,129.00
2022-11-29T10:41:52.590Z,131.00
2022-11-29T10:42:52.586Z,133.20
2022-11-29T10:43:52.579Z,138.30
2022-11-29T10:44:52.580Z,134.00
2022-11-29T10:45:52.585Z,134.40
2022-11-29T10:46:52.575Z,128.30
2022-11-29T10:47:52.566Z,137.40
2022-11-29T10:48:52.559Z,130.80
2022-11-29T10:49:52.560Z,133.20
2022-11-29T10:50:52.581Z,136.20
2022-11-29T10:51:52.550Z,139.10
2022-11-29T10:52:55.860Z,131.30
2022-11-29T10:53:52.535Z,132.30
2022-11-29T10:54:52.535Z,127.60
2022-11-29T10:55:52.527Z,128.60
2022-11-29T10:56:52.545Z,131.40
2022-11-29T10:57:52.517Z,125.50
2022-11-29T10:58:52.517Z,126.90
2022-11-29T10:59:52.517Z,133.20
2022-11-29T11:00:52.588Z,129.60
2022-11-29T11:01:52.556Z,129.80
2022-11-29T11:02:52.503Z,140.70
2022-11-29T11:03:53.177Z,127.70
2022-11-29T11:04:52.497Z,134.20
2022-11-29T11:05:52.539Z,130.90
2022-11-29T11:06:52.502Z,132.20
2022-11-29T11:07:52.525Z,135.90
2022-11-29T11:08:52.476Z,102.60
2022-11-29T11:09:52.467Z,101.70
2022-11-29T11:10:55.439Z,114.80
2022-11-29T11:11:52.459Z,114.80
2022-11-29T11:12:52.459Z,112.50
2022-11-29T11:13:52.451Z,102.80
2022-11-29T11:14:52.450Z,110.90
2022-11-29T11:15:52.441Z,105.40
2022-11-29T11:16:52.486Z,116.80
2022-11-29T11:17:52.433Z,102.20
2022-11-29T11:18:52.430Z,111.80
2022-11-29T11:19:52.430Z,114.80
2022-11-29T11:20:52.420Z,106.40
2022-11-29T11:21:52.414Z,105.00
2022-11-29T11:22:52.456Z,107.40
2022-11-29T11:23:52.406Z,99.70
2022-11-29T11:24:52.405Z,99.90
2022-11-29T11:25:52.398Z,97.90
2022-11-29T11:26:52.396Z,111.40
2022-11-29T11:27:52.392Z,111.70
2022-11-29T11:28:52.386Z,105.00
2022-11-29T11:29:52.581Z,107.50
2022-11-29T11:30:52.412Z,104.90
2022-11-29T11:31:52.375Z,111.80
2022-11-29T11:32:52.368Z,107.10
2022-11-29T11:33:52.365Z,106.30
2022-11-29T11:34:52.407Z,108.70
2022-11-29T11:35:52.355Z,103.30
2022-11-29T11:36:52.355Z,101.70
2022-11-29T11:37:52.351Z,105.60
2022-11-29T11:38:52.370Z,109.40
2022-11-29T11:39:52.391Z,108.80
2022-11-29T11:40:57.843Z,106.90
2022-11-29T11:41:52.337Z,109.00
2022-11-29T11:42:52.330Z,104.80
2022-11-29T11:43:52.324Z,107.50
2022-11-29T11:44:52.507Z,100.20
2022-11-29T11:45:52.344Z,106.80
2022-11-29T11:46:52.314Z,107.80
2022-11-29T11:47:52.307Z,104.80
2022-11-29T11:48:52.302Z,102.10
2022-11-29T11:49:52.298Z,106.30
2022-11-29T11:50:52.293Z,105.60
2022-11-29T11:51:52.290Z,99.30
2022-11-29T11:52:52.534Z,101.90
2022-11-29T11:53:52.283Z,98.00
2022-11-29T11:54:52.298Z,101.40
2022-11-29T11:55:52.280Z,105.30
2022-11-29T11:56:52.267Z,102.60
2022-11-29T11:57:52.263Z,102.10
2022-11-29T11:58:52.257Z,107.70
2022-11-29T11:59:52.255Z,99.90
2022-11-29T12:01:07.595Z,100.90
2022-11-29T12:01:52.252Z,99.20
2022-11-29T12:02:52.314Z,102.10
2022-11-29T12:03:52.240Z,100.10
2022-11-29T12:04:52.243Z,105.30
2022-11-29T12:05:52.251Z,101.10
2022-11-29T12:06:52.230Z,109.10
2022-11-29T12:08:08.806Z,98.50
2022-11-29T12:08:52.259Z,103.50
2022-11-29T12:09:52.215Z,100.50
2022-11-29T12:10:52.230Z,96.80
2022-11-29T12:11:52.206Z,101.00
2022-11-29T12:12:52.200Z,106.50
2022-11-29T12:13:52.196Z,97.80
2022-11-29T12:14:52.191Z,99.50
2022-11-29T12:15:52.217Z,101.10
2022-11-29T12:16:52.191Z,108.00
2022-11-29T12:17:52.180Z,108.40
2022-11-29T12:18:52.174Z,112.30
2022-11-29T12:19:52.174Z,111.20
2022-11-29T12:20:52.165Z,115.10
2022-11-29T12:21:52.177Z,107.10
2022-11-29T12:22:52.161Z,101.60
2022-11-29T12:23:52.157Z,110.40
2022-11-29T12:24:52.148Z,102.40
2022-11-29T12:25:52.212Z,104.60
2022-11-29T12:26:59.657Z,100.40
2022-11-29T12:27:52.138Z,99.80
2022-11-29T12:28:52.131Z,101.80
2022-11-29T12:29:52.134Z,99.10
2022-11-29T12:30:52.162Z,95.10
2022-11-29T12:31:52.130Z,97.70
2022-11-29T12:32:52.118Z,102.10
2022-11-29T12:33:52.114Z,98.10
2022-11-29T12:34:53.059Z,95.70
2022-11-29T12:35:52.106Z,92.40
2022-11-29T12:36:52.109Z,93.20
2022-11-29T12:37:52.095Z,102.20
2022-11-29T12:38:52.092Z,101.20